sensor_id;sensor_type;location;lat;lon;timestamp;P1;durP1;ratioP1;P2;durP2;ratioP2
76447;SDS011;65284;51.040;13.722;2022-12-07T00:01:29;18.25;;;7.97;;
76447;SDS011;65284;51.040;13.722;2022-12-07T00:03:59;16.40;;;7.53;;
76447;SDS011;65284;51.040;13.722;2022-12-07T00:06:41;15.50;;;6.13;;
76447;SDS011;65284;51.040;13.722;2022-12-07T00:09:12;15.05;;;6.95;;
76447;SDS011;65284;51.040;13.722;2022-12-07T00:11:41;16.17;;;6.72;;
76447;SDS011;65284;51.040;13.722;2022-12-07T00:14:10;15.48;;;6.68;;
76447;SDS011;65284;51.040;13.722;2022-12-07T00:16:38;16.00;;;6.95;;
76447;SDS011;65284;51.040;13.722;2022-12-07T00:19:06;14.55;;;6.40;;
76447;SDS011;65284;51.040;13.722;2022-12-07T00:21:33;16.38;;;6.80;;
76447;SDS011;65284;51.040;13.722;2022-12-07T00:24:02;15.38;;;6.95;;
76447;SDS011;65284;51.040;13.722;2022-12-07T00:26:33;17.42;;;7.57;;
76447;SDS011;65284;51.040;13.722;2022-12-07T00:29:04;17.00;;;7.28;;
76447;SDS011;65284;51.040;13.722;2022-12-07T00:31:34;16.58;;;6.97;;
76447;SDS011;65284;51.040;13.722;2022-12-07T00:34:05;15.20;;;6.65;;
76447;SDS011;65284;51.040;13.722;2022-12-07T00:36:33;17.50;;;7.00;;
76447;SDS011;65284;51.040;13.722;2022-12-07T00:38:59;15.10;;;7.05;;
76447;SDS011;65284;51.040;13.722;2022-12-07T00:41:27;15.07;;;6.70;;
76447;SDS011;65284;51.040;13.722;2022-12-07T00:43:55;16.65;;;6.15;;
76447;SDS011;65284;51.040;13.722;2022-12-07T00:46:22;16.50;;;6.63;;
76447;SDS011;65284;51.040;13.722;2022-12-07T00:48:49;17.00;;;7.07;;
76447;SDS011;65284;51.040;13.722;2022-12-07T00:51:18;15.45;;;6.95;;
76447;SDS011;65284;51.040;13.722;2022-12-07T00:53:46;18.15;;;7.60;;
76447;SDS011;65284;51.040;13.722;2022-12-07T00:56:23;15.98;;;6.72;;
76447;SDS011;65284;51.040;13.722;2022-12-07T00:58:55;15.55;;;6.65;;
76447;SDS011;65284;51.040;13.722;2022-12-07T01:01:23;15.55;;;7.18;;
76447;SDS011;65284;51.040;13.722;2022-12-07T01:03:52;17.65;;;7.40;;
76447;SDS011;65284;51.040;13.722;2022-12-07T01:06:19;16.50;;;7.15;;
76447;SDS011;65284;51.040;13.722;2022-12-07T01:08:46;17.80;;;7.22;;
76447;SDS011;65284;51.040;13.722;2022-12-07T01:11:14;17.50;;;7.70;;
76447;SDS011;65284;51.040;13.722;2022-12-07T01:16:11;18.77;;;7.28;;
76447;SDS011;65284;51.040;13.722;2022-12-07T01:18:40;18.60;;;7.32;;
76447;SDS011;65284;51.040;13.722;2022-12-07T01:21:09;18.02;;;7.60;;
76447;SDS011;65284;51.040;13.722;2022-12-07T01:23:38;16.20;;;6.80;;
76447;SDS011;65284;51.040;13.722;2022-12-07T01:26:05;18.90;;;7.82;;
76447;SDS011;65284;51.040;13.722;2022-12-07T01:28:35;17.33;;;7.88;;
76447;SDS011;65284;51.040;13.722;2022-12-07T01:31:06;17.52;;;7.75;;
76447;SDS011;65284;51.040;13.722;2022-12-07T01:33:36;18.20;;;7.20;;
76447;SDS011;65284;51.040;13.722;2022-12-07T01:36:04;18.85;;;7.63;;
76447;SDS011;65284;51.040;13.722;2022-12-07T01:38:38;16.13;;;7.40;;
76447;SDS011;65284;51.040;13.722;2022-12-07T01:41:06;18.10;;;7.30;;
76447;SDS011;65284;51.040;13.722;2022-12-07T01:43:33;19.33;;;7.65;;
76447;SDS011;65284;51.040;13.722;2022-12-07T01:46:00;16.65;;;6.38;;
76447;SDS011;65284;51.040;13.722;2022-12-07T01:48:38;15.52;;;6.80;;
76447;SDS011;65284;51.040;13.722;2022-12-07T01:51:10;18.88;;;7.82;;
76447;SDS011;65284;51.040;13.722;2022-12-07T01:53:40;16.90;;;7.03;;
76447;SDS011;65284;51.040;13.722;2022-12-07T01:56:10;16.50;;;6.88;;
76447;SDS011;65284;51.040;13.722;2022-12-07T01:58:43;16.25;;;7.30;;
76447;SDS011;65284;51.040;13.722;2022-12-07T02:01:10;14.32;;;6.00;;
76447;SDS011;65284;51.040;13.722;2022-12-07T02:03:41;15.88;;;6.60;;
76447;SDS011;65284;51.040;13.722;2022-12-07T02:06:09;12.85;;;6.03;;
76447;SDS011;65284;51.040;13.722;2022-12-07T02:08:38;12.02;;;5.05;;
76447;SDS011;65284;51.040;13.722;2022-12-07T02:11:05;13.15;;;5.85;;
76447;SDS011;65284;51.040;13.722;2022-12-07T02:13:34;12.90;;;5.82;;
76447;SDS011;65284;51.040;13.722;2022-12-07T02:32:03;11.35;;;4.95;;
76447;SDS011;65284;51.040;13.722;2022-12-07T02:34:46;11.93;;;5.50;;
76447;SDS011;65284;51.040;13.722;2022-12-07T02:37:32;11.85;;;5.30;;
76447;SDS011;65284;51.040;13.722;2022-12-07T02:40:05;12.05;;;5.47;;
76447;SDS011;65284;51.040;13.722;2022-12-07T02:42:40;11.02;;;5.22;;
76447;SDS011;65284;51.040;13.722;2022-12-07T02:45:13;13.32;;;5.75;;
76447;SDS011;65284;51.040;13.722;2022-12-07T02:47:43;13.15;;;5.65;;
76447;SDS011;65284;51.040;13.722;2022-12-07T02:50:10;13.02;;;5.93;;
76447;SDS011;65284;51.040;13.722;2022-12-07T02:52:37;12.68;;;5.50;;
76447;SDS011;65284;51.040;13.722;2022-12-07T02:55:04;12.25;;;5.47;;
76447;SDS011;65284;51.040;13.722;2022-12-07T03:00:26;13.55;;;5.80;;
76447;SDS011;65284;51.040;13.722;2022-12-07T03:08:20;15.60;;;6.95;;
76447;SDS011;65284;51.040;13.722;2022-12-07T03:10:54;15.75;;;6.40;;
76447;SDS011;65284;51.040;13.722;2022-12-07T03:13:31;15.70;;;6.80;;
76447;SDS011;65284;51.040;13.722;2022-12-07T03:16:15;14.82;;;6.90;;
76447;SDS011;65284;51.040;13.722;2022-12-07T03:18:46;14.32;;;6.55;;
76447;SDS011;65284;51.040;13.722;2022-12-07T03:21:26;17.55;;;7.38;;
76447;SDS011;65284;51.040;13.722;2022-12-07T03:23:58;18.48;;;7.40;;
76447;SDS011;65284;51.040;13.722;2022-12-07T03:26:36;16.27;;;7.30;;
76447;SDS011;65284;51.040;13.722;2022-12-07T03:29:08;19.42;;;8.13;;
76447;SDS011;65284;51.040;13.722;2022-12-07T03:31:40;19.92;;;7.50;;
76447;SDS011;65284;51.040;13.722;2022-12-07T03:34:11;18.00;;;8.15;;
76447;SDS011;65284;51.040;13.722;2022-12-07T03:36:48;17.92;;;8.00;;
76447;SDS011;65284;51.040;13.722;2022-12-07T03:39:29;19.85;;;8.40;;
76447;SDS011;65284;51.040;13.722;2022-12-07T03:42:26;17.38;;;7.90;;
76447;SDS011;65284;51.040;13.722;2022-12-07T03:44:52;18.08;;;8.02;;
76447;SDS011;65284;51.040;13.722;2022-12-07T03:47:22;17.80;;;7.65;;
76447;SDS011;65284;51.040;13.722;2022-12-07T03:50:08;18.17;;;7.63;;
76447;SDS011;65284;51.040;13.722;2022-12-07T03:52:41;17.88;;;7.13;;
76447;SDS011;65284;51.040;13.722;2022-12-07T03:55:26;16.30;;;7.68;;
76447;SDS011;65284;51.040;13.722;2022-12-07T03:57:56;17.27;;;7.93;;
76447;SDS011;65284;51.040;13.722;2022-12-07T04:00:28;17.23;;;7.22;;
76447;SDS011;65284;51.040;13.722;2022-12-07T04:02:55;16.88;;;7.60;;
76447;SDS011;65284;51.040;13.722;2022-12-07T04:05:22;17.40;;;7.25;;
76447;SDS011;65284;51.040;13.722;2022-12-07T04:07:49;17.15;;;6.85;;
76447;SDS011;65284;51.040;13.722;2022-12-07T04:10:16;17.98;;;7.40;;
76447;SDS011;65284;51.040;13.722;2022-12-07T04:12:42;16.42;;;6.97;;
76447;SDS011;65284;51.040;13.722;2022-12-07T04:15:09;15.65;;;6.90;;
76447;SDS011;65284;51.040;13.722;2022-12-07T04:17:35;17.15;;;7.03;;
76447;SDS011;65284;51.040;13.722;2022-12-07T04:20:02;17.70;;;6.70;;
76447;SDS011;65284;51.040;13.722;2022-12-07T04:22:30;16.50;;;7.05;;
76447;SDS011;65284;51.040;13.722;2022-12-07T04:24:57;16.00;;;6.97;;
76447;SDS011;65284;51.040;13.722;2022-12-07T04:27:23;15.25;;;6.80;;
76447;SDS011;65284;51.040;13.722;2022-12-07T04:29:49;16.42;;;6.90;;
76447;SDS011;65284;51.040;13.722;2022-12-07T04:32:16;16.55;;;6.63;;
76447;SDS011;65284;51.040;13.722;2022-12-07T04:34:42;15.13;;;6.65;;
76447;SDS011;65284;51.040;13.722;2022-12-07T04:37:09;13.52;;;6.47;;
76447;SDS011;65284;51.040;13.722;2022-12-07T04:39:36;13.80;;;6.22;;
76447;SDS011;65284;51.040;13.722;2022-12-07T04:42:02;14.93;;;6.63;;
76447;SDS011;65284;51.040;13.722;2022-12-07T04:44:29;16.52;;;6.63;;
76447;SDS011;65284;51.040;13.722;2022-12-07T04:46:56;14.93;;;6.32;;
76447;SDS011;65284;51.040;13.722;2022-12-07T04:49:23;15.98;;;5.97;;
76447;SDS011;65284;51.040;13.722;2022-12-07T04:51:50;13.38;;;5.43;;
76447;SDS011;65284;51.040;13.722;2022-12-07T04:54:17;16.05;;;6.22;;
76447;SDS011;65284;51.040;13.722;2022-12-07T04:56:44;14.80;;;5.97;;
76447;SDS011;65284;51.040;13.722;2022-12-07T04:59:11;14.10;;;5.90;;
76447;SDS011;65284;51.040;13.722;2022-12-07T05:01:39;15.88;;;5.95;;
76447;SDS011;65284;51.040;13.722;2022-12-07T05:04:06;16.33;;;6.25;;
76447;SDS011;65284;51.040;13.722;2022-12-07T05:06:33;14.57;;;6.13;;
76447;SDS011;65284;51.040;13.722;2022-12-07T05:09:00;15.93;;;5.78;;
76447;SDS011;65284;51.040;13.722;2022-12-07T05:11:26;13.85;;;5.72;;
76447;SDS011;65284;51.040;13.722;2022-12-07T05:14:12;14.30;;;6.03;;
76447;SDS011;65284;51.040;13.722;2022-12-07T05:16:40;15.15;;;6.10;;
76447;SDS011;65284;51.040;13.722;2022-12-07T05:19:07;13.60;;;5.75;;
76447;SDS011;65284;51.040;13.722;2022-12-07T05:21:35;13.77;;;5.60;;
76447;SDS011;65284;51.040;13.722;2022-12-07T05:24:02;15.13;;;5.93;;
76447;SDS011;65284;51.040;13.722;2022-12-07T05:26:28;11.98;;;5.55;;
76447;SDS011;65284;51.040;13.722;2022-12-07T05:28:55;13.18;;;5.53;;
76447;SDS011;65284;51.040;13.722;2022-12-07T05:31:22;15.70;;;5.50;;
76447;SDS011;65284;51.040;13.722;2022-12-07T05:33:50;12.85;;;4.97;;
76447;SDS011;65284;51.040;13.722;2022-12-07T05:36:16;11.40;;;4.57;;
76447;SDS011;65284;51.040;13.722;2022-12-07T05:38:43;10.88;;;4.60;;
76447;SDS011;65284;51.040;13.722;2022-12-07T05:41:12;9.75;;;4.10;;
76447;SDS011;65284;51.040;13.722;2022-12-07T05:43:59;10.80;;;4.57;;
76447;SDS011;65284;51.040;13.722;2022-12-07T05:46:26;10.80;;;4.75;;
76447;SDS011;65284;51.040;13.722;2022-12-07T05:48:52;10.68;;;4.25;;
76447;SDS011;65284;51.040;13.722;2022-12-07T05:51:19;11.20;;;4.70;;
76447;SDS011;65284;51.040;13.722;2022-12-07T05:53:46;9.63;;;4.05;;
76447;SDS011;65284;51.040;13.722;2022-12-07T05:56:12;9.25;;;4.10;;
76447;SDS011;65284;51.040;13.722;2022-12-07T05:58:39;11.45;;;4.70;;
76447;SDS011;65284;51.040;13.722;2022-12-07T06:01:23;10.45;;;4.32;;
76447;SDS011;65284;51.040;13.722;2022-12-07T06:03:50;9.80;;;4.30;;
76447;SDS011;65284;51.040;13.722;2022-12-07T06:06:16;8.02;;;3.67;;
76447;SDS011;65284;51.040;13.722;2022-12-07T06:08:43;10.07;;;3.55;;
76447;SDS011;65284;51.040;13.722;2022-12-07T06:11:09;11.48;;;3.92;;
76447;SDS011;65284;51.040;13.722;2022-12-07T06:13:54;9.98;;;3.88;;
76447;SDS011;65284;51.040;13.722;2022-12-07T06:16:20;10.07;;;4.35;;
76447;SDS011;65284;51.040;13.722;2022-12-07T06:18:47;8.20;;;3.67;;
76447;SDS011;65284;51.040;13.722;2022-12-07T06:21:13;10.65;;;3.97;;
76447;SDS011;65284;51.040;13.722;2022-12-07T06:23:40;7.90;;;3.80;;
76447;SDS011;65284;51.040;13.722;2022-12-07T06:26:06;8.50;;;3.50;;
76447;SDS011;65284;51.040;13.722;2022-12-07T06:28:33;9.70;;;3.80;;
76447;SDS011;65284;51.040;13.722;2022-12-07T06:31:00;8.98;;;4.00;;
76447;SDS011;65284;51.040;13.722;2022-12-07T06:33:27;9.25;;;3.60;;
76447;SDS011;65284;51.040;13.722;2022-12-07T06:35:54;7.60;;;3.67;;
76447;SDS011;65284;51.040;13.722;2022-12-07T06:38:21;8.95;;;3.63;;
76447;SDS011;65284;51.040;13.722;2022-12-07T06:40:47;10.68;;;3.90;;
76447;SDS011;65284;51.040;13.722;2022-12-07T06:43:14;8.75;;;3.70;;
76447;SDS011;65284;51.040;13.722;2022-12-07T06:45:41;7.47;;;3.47;;
76447;SDS011;65284;51.040;13.722;2022-12-07T06:48:07;8.80;;;3.70;;
76447;SDS011;65284;51.040;13.722;2022-12-07T06:50:34;9.02;;;3.40;;
76447;SDS011;65284;51.040;13.722;2022-12-07T06:53:00;8.27;;;3.75;;
76447;SDS011;65284;51.040;13.722;2022-12-07T06:55:27;8.55;;;4.03;;
76447;SDS011;65284;51.040;13.722;2022-12-07T06:57:53;9.80;;;3.90;;
76447;SDS011;65284;51.040;13.722;2022-12-07T07:00:20;13.00;;;4.32;;
76447;SDS011;65284;51.040;13.722;2022-12-07T07:02:47;8.25;;;3.80;;
76447;SDS011;65284;51.040;13.722;2022-12-07T07:05:14;10.85;;;3.60;;
76447;SDS011;65284;51.040;13.722;2022-12-07T07:07:41;8.27;;;3.83;;
76447;SDS011;65284;51.040;13.722;2022-12-07T07:10:28;6.53;;;3.08;;
76447;SDS011;65284;51.040;13.722;2022-12-07T07:12:54;7.82;;;3.35;;
76447;SDS011;65284;51.040;13.722;2022-12-07T07:15:23;9.45;;;4.30;;
76447;SDS011;65284;51.040;13.722;2022-12-07T07:17:49;10.40;;;4.35;;
76447;SDS011;65284;51.040;13.722;2022-12-07T07:20:15;9.35;;;4.18;;
76447;SDS011;65284;51.040;13.722;2022-12-07T07:22:42;7.60;;;3.75;;
76447;SDS011;65284;51.040;13.722;2022-12-07T07:25:08;9.15;;;4.60;;
76447;SDS011;65284;51.040;13.722;2022-12-07T07:27:44;9.52;;;4.25;;
76447;SDS011;65284;51.040;13.722;2022-12-07T07:30:10;9.90;;;4.25;;
76447;SDS011;65284;51.040;13.722;2022-12-07T07:32:37;9.45;;;4.40;;
76447;SDS011;65284;51.040;13.722;2022-12-07T07:35:04;9.13;;;4.05;;
76447;SDS011;65284;51.040;13.722;2022-12-07T07:37:31;9.32;;;4.22;;
76447;SDS011;65284;51.040;13.722;2022-12-07T07:39:57;9.45;;;3.58;;
76447;SDS011;65284;51.040;13.722;2022-12-07T07:42:23;8.43;;;4.00;;
76447;SDS011;65284;51.040;13.722;2022-12-07T07:44:50;8.00;;;4.22;;
76447;SDS011;65284;51.040;13.722;2022-12-07T07:47:16;7.78;;;4.03;;
76447;SDS011;65284;51.040;13.722;2022-12-07T07:49:43;7.88;;;4.07;;
76447;SDS011;65284;51.040;13.722;2022-12-07T07:52:13;8.60;;;4.25;;
76447;SDS011;65284;51.040;13.722;2022-12-07T07:54:39;10.95;;;4.80;;
76447;SDS011;65284;51.040;13.722;2022-12-07T07:57:06;10.75;;;5.35;;
76447;SDS011;65284;51.040;13.722;2022-12-07T07:59:32;13.40;;;5.00;;
76447;SDS011;65284;51.040;13.722;2022-12-07T08:01:59;13.05;;;5.75;;
76447;SDS011;65284;51.040;13.722;2022-12-07T08:04:26;11.65;;;6.00;;
76447;SDS011;65284;51.040;13.722;2022-12-07T08:06:52;12.23;;;5.85;;
76447;SDS011;65284;51.040;13.722;2022-12-07T08:09:18;12.13;;;6.20;;
76447;SDS011;65284;51.040;13.722;2022-12-07T08:11:45;11.27;;;5.40;;
76447;SDS011;65284;51.040;13.722;2022-12-07T08:14:11;12.05;;;4.85;;
76447;SDS011;65284;51.040;13.722;2022-12-07T08:16:38;8.05;;;4.10;;
76447;SDS011;65284;51.040;13.722;2022-12-07T08:19:04;12.77;;;6.03;;
76447;SDS011;65284;51.040;13.722;2022-12-07T08:21:31;11.85;;;6.28;;
76447;SDS011;65284;51.040;13.722;2022-12-07T08:23:58;14.20;;;6.10;;
76447;SDS011;65284;51.040;13.722;2022-12-07T08:26:25;14.48;;;6.78;;
76447;SDS011;65284;51.040;13.722;2022-12-07T08:28:52;15.10;;;6.55;;
76447;SDS011;65284;51.040;13.722;2022-12-07T08:31:19;16.42;;;6.95;;
76447;SDS011;65284;51.040;13.722;2022-12-07T08:33:46;12.32;;;6.10;;
76447;SDS011;65284;51.040;13.722;2022-12-07T08:36:13;9.57;;;4.72;;
76447;SDS011;65284;51.040;13.722;2022-12-07T08:38:41;14.75;;;6.38;;
76447;SDS011;65284;51.040;13.722;2022-12-07T08:41:26;12.38;;;6.22;;
76447;SDS011;65284;51.040;13.722;2022-12-07T08:43:53;12.75;;;5.78;;
76447;SDS011;65284;51.040;13.722;2022-12-07T08:48:59;14.32;;;6.07;;
76447;SDS011;65284;51.040;13.722;2022-12-07T08:51:30;15.32;;;5.75;;
76447;SDS011;65284;51.040;13.722;2022-12-07T08:53:58;11.88;;;5.68;;
76447;SDS011;65284;51.040;13.722;2022-12-07T08:56:26;10.85;;;5.30;;
76447;SDS011;65284;51.040;13.722;2022-12-07T08:58:53;12.68;;;5.80;;
76447;SDS011;65284;51.040;13.722;2022-12-07T09:01:19;13.00;;;5.80;;
76447;SDS011;65284;51.040;13.722;2022-12-07T09:03:46;13.80;;;6.05;;
76447;SDS011;65284;51.040;13.722;2022-12-07T09:06:12;12.43;;;5.63;;
76447;SDS011;65284;51.040;13.722;2022-12-07T09:08:40;14.82;;;5.90;;
76447;SDS011;65284;51.040;13.722;2022-12-07T09:11:11;13.50;;;5.65;;
76447;SDS011;65284;51.040;13.722;2022-12-07T09:13:38;13.05;;;5.50;;
76447;SDS011;65284;51.040;13.722;2022-12-07T09:16:04;14.05;;;6.40;;
76447;SDS011;65284;51.040;13.722;2022-12-07T09:18:31;13.15;;;5.93;;
76447;SDS011;65284;51.040;13.722;2022-12-07T09:20:58;13.43;;;6.07;;
76447;SDS011;65284;51.040;13.722;2022-12-07T09:23:24;12.23;;;6.15;;
76447;SDS011;65284;51.040;13.722;2022-12-07T09:25:50;9.18;;;4.60;;
76447;SDS011;65284;51.040;13.722;2022-12-07T09:28:17;14.05;;;6.15;;
76447;SDS011;65284;51.040;13.722;2022-12-07T09:30:47;11.13;;;5.30;;
76447;SDS011;65284;51.040;13.722;2022-12-07T09:33:34;14.15;;;5.38;;
76447;SDS011;65284;51.040;13.722;2022-12-07T09:36:00;11.50;;;5.25;;
76447;SDS011;65284;51.040;13.722;2022-12-07T09:38:28;13.07;;;5.32;;
76447;SDS011;65284;51.040;13.722;2022-12-07T09:40:55;11.13;;;4.80;;
76447;SDS011;65284;51.040;13.722;2022-12-07T09:43:22;13.23;;;4.93;;
76447;SDS011;65284;51.040;13.722;2022-12-07T09:45:51;13.18;;;5.30;;
76447;SDS011;65284;51.040;13.722;2022-12-07T09:48:33;12.02;;;4.65;;
76447;SDS011;65284;51.040;13.722;2022-12-07T09:51:15;11.77;;;4.90;;
76447;SDS011;65284;51.040;13.722;2022-12-07T09:53:49;10.35;;;3.78;;
76447;SDS011;65284;51.040;13.722;2022-12-07T09:56:17;11.23;;;3.97;;
76447;SDS011;65284;51.040;13.722;2022-12-07T09:58:45;10.93;;;4.63;;
76447;SDS011;65284;51.040;13.722;2022-12-07T10:01:13;10.57;;;3.95;;
76447;SDS011;65284;51.040;13.722;2022-12-07T10:03:43;9.00;;;4.30;;
76447;SDS011;65284;51.040;13.722;2022-12-07T10:06:15;10.02;;;4.00;;
76447;SDS011;65284;51.040;13.722;2022-12-07T10:08:42;9.40;;;3.17;;
76447;SDS011;65284;51.040;13.722;2022-12-07T10:11:09;10.18;;;4.00;;
76447;SDS011;65284;51.040;13.722;2022-12-07T10:13:38;10.50;;;4.57;;
76447;SDS011;65284;51.040;13.722;2022-12-07T10:18:50;9.85;;;4.28;;
76447;SDS011;65284;51.040;13.722;2022-12-07T10:21:18;9.40;;;4.03;;
76447;SDS011;65284;51.040;13.722;2022-12-07T10:24:03;9.82;;;3.97;;
76447;SDS011;65284;51.040;13.722;2022-12-07T10:26:33;12.27;;;4.60;;
76447;SDS011;65284;51.040;13.722;2022-12-07T10:31:43;10.75;;;4.13;;
76447;SDS011;65284;51.040;13.722;2022-12-07T10:34:25;9.85;;;4.38;;
76447;SDS011;65284;51.040;13.722;2022-12-07T10:39:44;10.18;;;4.10;;
76447;SDS011;65284;51.040;13.722;2022-12-07T10:42:22;10.05;;;4.00;;
76447;SDS011;65284;51.040;13.722;2022-12-07T10:45:06;10.48;;;4.78;;
76447;SDS011;65284;51.040;13.722;2022-12-07T10:51:03;9.25;;;3.88;;
76447;SDS011;65284;51.040;13.722;2022-12-07T10:53:47;10.88;;;4.82;;
76447;SDS011;65284;51.040;13.722;2022-12-07T10:56:38;11.98;;;4.80;;
76447;SDS011;65284;51.040;13.722;2022-12-07T11:07:47;12.93;;;4.55;;
76447;SDS011;65284;51.040;13.722;2022-12-07T11:10:43;13.65;;;5.00;;
76447;SDS011;65284;51.040;13.722;2022-12-07T11:13:18;13.27;;;4.32;;
76447;SDS011;65284;51.040;13.722;2022-12-07T11:16:00;14.43;;;4.90;;
76447;SDS011;65284;51.040;13.722;2022-12-07T11:24:17;11.93;;;4.50;;
76447;SDS011;65284;51.040;13.722;2022-12-07T11:32:34;12.00;;;4.65;;
76447;SDS011;65284;51.040;13.722;2022-12-07T11:35:11;10.85;;;4.57;;
76447;SDS011;65284;51.040;13.722;2022-12-07T11:37:40;13.40;;;5.53;;
76447;SDS011;65284;51.040;13.722;2022-12-07T11:40:20;8.40;;;4.18;;
76447;SDS011;65284;51.040;13.722;2022-12-07T11:45:44;11.02;;;5.15;;
76447;SDS011;65284;51.040;13.722;2022-12-07T11:48:30;11.70;;;5.18;;
76447;SDS011;65284;51.040;13.722;2022-12-07T11:51:00;13.10;;;5.50;;
76447;SDS011;65284;51.040;13.722;2022-12-07T11:53:38;14.60;;;5.47;;
76447;SDS011;65284;51.040;13.722;2022-12-07T11:56:11;11.25;;;4.97;;
76447;SDS011;65284;51.040;13.722;2022-12-07T11:58:57;14.30;;;5.43;;
76447;SDS011;65284;51.040;13.722;2022-12-07T12:06:27;14.20;;;6.45;;
76447;SDS011;65284;51.040;13.722;2022-12-07T12:09:02;14.05;;;5.50;;
76447;SDS011;65284;51.040;13.722;2022-12-07T12:20:48;9.55;;;4.55;;
76447;SDS011;65284;51.040;13.722;2022-12-07T12:25:59;10.13;;;5.07;;
76447;SDS011;65284;51.040;13.722;2022-12-07T12:31:16;10.63;;;4.38;;
76447;SDS011;65284;51.040;13.722;2022-12-07T12:34:02;10.90;;;4.88;;
76447;SDS011;65284;51.040;13.722;2022-12-07T12:36:49;7.55;;;3.97;;
76447;SDS011;65284;51.040;13.722;2022-12-07T12:39:16;6.93;;;3.13;;
76447;SDS011;65284;51.040;13.722;2022-12-07T12:46:48;6.00;;;1.90;;
76447;SDS011;65284;51.040;13.722;2022-12-07T12:51:55;4.13;;;1.98;;
76447;SDS011;65284;51.040;13.722;2022-12-07T13:02:31;8.30;;;3.97;;
76447;SDS011;65284;51.040;13.722;2022-12-07T13:05:16;9.25;;;4.03;;
76447;SDS011;65284;51.040;13.722;2022-12-07T13:10:28;12.30;;;4.65;;
76447;SDS011;65284;51.040;13.722;2022-12-07T13:15:37;9.90;;;4.30;;
76447;SDS011;65284;51.040;13.722;2022-12-07T13:20:56;9.32;;;5.20;;
76447;SDS011;65284;51.040;13.722;2022-12-07T13:28:47;8.98;;;3.70;;
76447;SDS011;65284;51.040;13.722;2022-12-07T13:34:00;7.60;;;3.03;;
76447;SDS011;65284;51.040;13.722;2022-12-07T13:36:33;6.50;;;3.10;;
76447;SDS011;65284;51.040;13.722;2022-12-07T13:41:41;7.50;;;3.35;;
76447;SDS011;65284;51.040;13.722;2022-12-07T13:44:13;7.50;;;3.45;;
76447;SDS011;65284;51.040;13.722;2022-12-07T13:46:53;6.82;;;3.58;;
76447;SDS011;65284;51.040;13.722;2022-12-07T13:49:22;8.82;;;4.18;;
76447;SDS011;65284;51.040;13.722;2022-12-07T13:51:51;9.30;;;4.00;;
76447;SDS011;65284;51.040;13.722;2022-12-07T13:54:18;10.85;;;4.72;;
76447;SDS011;65284;51.040;13.722;2022-12-07T13:56:51;10.27;;;5.03;;
76447;SDS011;65284;51.040;13.722;2022-12-07T13:59:19;12.40;;;5.30;;
76447;SDS011;65284;51.040;13.722;2022-12-07T14:04:35;11.00;;;4.97;;
76447;SDS011;65284;51.040;13.722;2022-12-07T14:07:47;11.25;;;4.65;;
76447;SDS011;65284;51.040;13.722;2022-12-07T14:10:06;10.07;;;4.75;;
76447;SDS011;65284;51.040;13.722;2022-12-07T14:12:35;9.95;;;4.20;;
76447;SDS011;65284;51.040;13.722;2022-12-07T14:15:03;9.05;;;4.53;;
76447;SDS011;65284;51.040;13.722;2022-12-07T14:17:30;21.05;;;9.25;;
76447;SDS011;65284;51.040;13.722;2022-12-07T14:19:57;18.52;;;7.68;;
76447;SDS011;65284;51.040;13.722;2022-12-07T14:22:28;12.02;;;4.53;;
76447;SDS011;65284;51.040;13.722;2022-12-07T14:27:46;9.93;;;4.28;;
76447;SDS011;65284;51.040;13.722;2022-12-07T14:30:28;8.15;;;3.97;;
76447;SDS011;65284;51.040;13.722;2022-12-07T14:33:00;10.85;;;4.13;;
76447;SDS011;65284;51.040;13.722;2022-12-07T14:35:29;8.70;;;4.07;;
76447;SDS011;65284;51.040;13.722;2022-12-07T14:37:56;10.05;;;4.50;;
76447;SDS011;65284;51.040;13.722;2022-12-07T14:40:24;8.63;;;3.83;;
76447;SDS011;65284;51.040;13.722;2022-12-07T14:43:03;10.77;;;4.25;;
76447;SDS011;65284;51.040;13.722;2022-12-07T14:45:34;8.13;;;3.88;;
76447;SDS011;65284;51.040;13.722;2022-12-07T14:48:01;10.43;;;4.03;;
76447;SDS011;65284;51.040;13.722;2022-12-07T14:50:50;11.10;;;4.20;;
76447;SDS011;65284;51.040;13.722;2022-12-07T14:53:42;7.50;;;2.85;;
76447;SDS011;65284;51.040;13.722;2022-12-07T14:56:18;8.27;;;3.10;;
76447;SDS011;65284;51.040;13.722;2022-12-07T14:58:44;7.90;;;2.85;;
76447;SDS011;65284;51.040;13.722;2022-12-07T15:01:14;8.93;;;3.38;;
76447;SDS011;65284;51.040;13.722;2022-12-07T15:03:40;7.55;;;2.60;;
76447;SDS011;65284;51.040;13.722;2022-12-07T15:06:06;7.88;;;2.58;;
76447;SDS011;65284;51.040;13.722;2022-12-07T15:08:33;8.63;;;2.50;;
76447;SDS011;65284;51.040;13.722;2022-12-07T15:10:59;7.00;;;2.13;;
76447;SDS011;65284;51.040;13.722;2022-12-07T15:13:26;5.63;;;2.17;;
76447;SDS011;65284;51.040;13.722;2022-12-07T15:16:11;6.43;;;2.25;;
76447;SDS011;65284;51.040;13.722;2022-12-07T15:18:39;9.07;;;2.65;;
76447;SDS011;65284;51.040;13.722;2022-12-07T15:21:23;6.20;;;2.42;;
76447;SDS011;65284;51.040;13.722;2022-12-07T15:23:50;5.78;;;2.30;;
76447;SDS011;65284;51.040;13.722;2022-12-07T15:26:16;8.05;;;2.63;;
76447;SDS011;65284;51.040;13.722;2022-12-07T15:28:43;7.13;;;2.50;;
76447;SDS011;65284;51.040;13.722;2022-12-07T15:31:16;6.03;;;1.90;;
76447;SDS011;65284;51.040;13.722;2022-12-07T15:34:05;7.13;;;2.13;;
76447;SDS011;65284;51.040;13.722;2022-12-07T15:36:32;5.60;;;2.30;;
76447;SDS011;65284;51.040;13.722;2022-12-07T15:39:02;6.43;;;1.50;;
76447;SDS011;65284;51.040;13.722;2022-12-07T15:41:44;7.07;;;2.22;;
76447;SDS011;65284;51.040;13.722;2022-12-07T15:44:12;4.38;;;1.65;;
76447;SDS011;65284;51.040;13.722;2022-12-07T15:46:58;5.10;;;1.77;;
76447;SDS011;65284;51.040;13.722;2022-12-07T15:49:25;4.00;;;1.52;;
76447;SDS011;65284;51.040;13.722;2022-12-07T15:51:52;7.28;;;1.70;;
76447;SDS011;65284;51.040;13.722;2022-12-07T15:54:20;5.55;;;1.83;;
76447;SDS011;65284;51.040;13.722;2022-12-07T15:56:51;4.97;;;1.52;;
76447;SDS011;65284;51.040;13.722;2022-12-07T15:59:18;6.03;;;1.90;;
76447;SDS011;65284;51.040;13.722;2022-12-07T16:01:44;11.20;;;3.60;;
76447;SDS011;65284;51.040;13.722;2022-12-07T16:04:11;9.70;;;3.35;;
76447;SDS011;65284;51.040;13.722;2022-12-07T16:06:38;6.55;;;2.45;;
76447;SDS011;65284;51.040;13.722;2022-12-07T16:09:05;6.13;;;2.40;;
76447;SDS011;65284;51.040;13.722;2022-12-07T16:11:31;5.57;;;2.53;;
76447;SDS011;65284;51.040;13.722;2022-12-07T16:13:58;8.43;;;2.85;;
76447;SDS011;65284;51.040;13.722;2022-12-07T16:16:25;6.65;;;2.92;;
76447;SDS011;65284;51.040;13.722;2022-12-07T16:18:52;19.17;;;7.45;;
76447;SDS011;65284;51.040;13.722;2022-12-07T16:21:18;9.35;;;3.33;;
76447;SDS011;65284;51.040;13.722;2022-12-07T16:23:50;7.88;;;3.25;;
76447;SDS011;65284;51.040;13.722;2022-12-07T16:26:17;7.32;;;2.65;;
76447;SDS011;65284;51.040;13.722;2022-12-07T16:28:47;7.47;;;2.67;;
76447;SDS011;65284;51.040;13.722;2022-12-07T16:31:22;6.22;;;2.35;;
76447;SDS011;65284;51.040;13.722;2022-12-07T16:33:52;5.00;;;1.90;;
76447;SDS011;65284;51.040;13.722;2022-12-07T16:36:21;6.40;;;2.20;;
76447;SDS011;65284;51.040;13.722;2022-12-07T16:39:10;4.95;;;1.77;;
76447;SDS011;65284;51.040;13.722;2022-12-07T16:41:36;8.77;;;2.03;;
76447;SDS011;65284;51.040;13.722;2022-12-07T16:44:04;6.43;;;2.10;;
76447;SDS011;65284;51.040;13.722;2022-12-07T16:46:32;5.25;;;1.90;;
76447;SDS011;65284;51.040;13.722;2022-12-07T16:48:59;4.78;;;2.00;;